Latest Weather Observations for Gladstone Airport

IDQ60801

Issued at 4:32 pm EST Saturday 1 October 2016 (issued every 30 minutes, with the page automatically refreshed every 10 minutes)

About weather observations | Map of weather stations | Latest weather observations for QLD | Other Formats
Station Details ID: 039326 Name: GLADSTONE AIRPORT Lat: -23.87 Lon: 151.22 Height: 16.6 m
Data from the previous 72 hours. | See also: Recent months at Gladstone Airport
Date/Time
EST
Temp
°C
App
Temp
°C
Dew
Point
°C
Rel
Hum
%
Delta-T
°C
Wind Press
QNH
hPa
Press
MSL
hPa
Rain since
9am
mm
Dir  Spd
km/h
Gust
km/h
Spd
kts
Gust
kts
01/04:30pm 26.4 24.3 11.3 39 8.6 ENE 13 17 7 9 1012.1 1012.1 0.0
01/04:00pm 26.0 23.2 11.4 40 8.3 NE 17 24 9 13 1011.9 1011.9 0.0
01/03:30pm 25.7 22.6 12.2 43 7.8 NE 20 24 11 13 1011.9 1011.9 0.0
01/03:00pm 26.0 23.1 12.8 44 7.7 ENE 20 28 11 15 1012.0 1012.0 0.0
01/02:30pm 25.9 22.5 10.5 38 8.6 NE 19 26 10 14 1012.2 1012.2 0.0
01/02:00pm 27.1 23.4 10.3 35 9.4 ENE 20 30 11 16 1012.4 1012.4 0.0
01/01:30pm 27.1 23.2 9.5 33 9.7 NE 20 30 11 16 1012.6 1012.6 0.0
01/01:00pm 29.8 23.9 -2.6 12 14.8 NNW 19 30 10 16 1013.0 1013.0 0.0
01/12:30pm 29.1 24.5 1.6 17 13.4 N 15 22 8 12 1013.2 1013.2 0.0
01/12:00pm 27.3 23.0 3.1 21 12.0 NNW 15 20 8 11 1013.6 1013.6 0.0
01/11:30am 26.7 22.5 3.9 23 11.4 N 15 20 8 11 1014.1 1014.1 0.0
01/11:00am 26.3 23.6 3.5 23 11.3 W 7 11 4 6 1014.6 1014.6 0.0
01/10:30am 25.5 21.8 4.6 26 10.5 WSW 13 22 7 12 1015.0 1015.0 0.0
01/10:00am 24.8 21.8 4.0 26 10.3 WSW 9 15 5 8 1015.4 1015.4 0.0
01/09:30am 23.4 20.5 4.9 30 9.2 SSW 9 15 5 8 1015.8 1015.8 0.0
01/09:00am 22.0 18.5 5.4 34 8.3 SW 13 17 7 9 1015.9 1015.9 0.2
01/08:30am 20.9 17.1 5.7 37 7.6 SW 15 24 8 13 1015.9 1015.9 0.2
01/08:00am 20.4 18.3 6.0 39 7.2 SSW 6 11 3 6 1015.3 1015.3 0.2
01/07:30am 18.2 15.5 5.8 44 6.1 SSW 9 13 5 7 1015.0 1015.0 0.2
01/07:00am 15.7 13.2 6.4 54 4.5 S 9 13 5 7 1014.6 1014.6 0.2
01/06:30am 13.8 11.5 5.7 58 3.8 SSW 7 9 4 5 1014.0 1014.0 0.2
01/06:00am 13.2 11.3 5.1 58 3.8 SSW 4 9 2 5 1013.3 1013.3 0.2
01/05:30am 12.9 10.6 4.8 58 3.7 SSW 6 9 3 5 1012.9 1012.9 0.2
01/05:00am 13.5 10.6 4.9 56 4.0 SSW 9 11 5 6 1012.4 1012.4 0.2
01/04:30am 14.0 11.1 4.9 54 4.2 SSW 9 13 5 7 1011.7 1011.7 0.2
01/04:00am 13.8 11.4 5.2 56 4.0 SSW 7 11 4 6 1011.3 1011.3 0.2
01/03:30am 13.3 11.1 6.4 63 3.3 N 7 9 4 5 1011.3 1011.3 0.2
01/03:00am 13.7 12.9 6.6 62 3.4 CALM 0 0 0 0 1011.4 1011.4 0.2
01/02:30am 14.8 13.7 5.1 52 4.6 CALM 0 0 0 0 1011.2 1011.2 0.2
01/02:00am 16.3 13.4 4.4 45 5.6 WSW 9 11 5 6 1011.4 1011.4 0.2
01/01:30am 16.6 14.0 4.0 43 5.9 SW 7 9 4 5 1011.4 1011.4 0.2
01/01:00am 17.5 14.9 3.4 39 6.5 SSW 6 9 3 5 1011.4 1011.4 0.2
01/12:30am 18.4 15.2 3.1 36 7.1 SW 9 13 5 7 1011.4 1011.4 0.2
01/12:00am 18.8 15.2 3.0 35 7.3 SW 11 13 6 7 1011.6 1011.6 0.2
 
Date/Time
EST
Temp
°C
App
Temp
°C
Dew
Point
°C
Rel
Hum
%
Delta-T
°C
Wind Press
QNH
hPa
Press
MSL
hPa
Rain since
9am
mm
Dir  Spd
km/h
Gust
km/h
Spd
kts
Gust
kts
30/11:30pm 18.3 15.5 3.0 36 7.1 SW 7 9 4 5 1011.7 1011.7 0.2
30/11:00pm 17.0 15.1 6.8 51 5.1 WSW 6 11 3 6 1011.8 1011.8 0.2
30/10:30pm 17.2 16.1 8.6 57 4.4 SE 4 7 2 4 1011.8 1011.8 0.2
30/10:00pm 17.6 16.9 7.1 50 5.3 CALM 0 6 0 3 1011.9 1011.9 0.2
30/09:30pm 18.8 18.1 6.9 46 6.0 CALM 0 4 0 2 1011.7 1011.7 0.2
30/09:00pm 20.0 18.2 8.0 46 6.2 NNW 7 9 4 5 1011.6 1011.6 0.2
30/08:30pm 20.6 18.6 6.9 41 7.0 NW 7 9 4 5 1011.4 1011.4 0.2
30/08:00pm 21.3 18.5 6.8 39 7.4 NNW 11 13 6 7 1011.0 1011.0 0.2
30/07:30pm 22.0 18.2 5.8 35 8.1 NW 15 22 8 12 1010.3 1010.3 0.2
30/07:00pm 22.3 18.6 6.1 35 8.2 NW 15 19 8 10 1009.8 1009.8 0.2
30/06:30pm 23.2 19.5 6.1 33 8.7 NW 15 19 8 10 1009.4 1009.4 0.2
30/06:00pm 24.4 20.1 5.2 29 9.7 NW 17 20 9 11 1009.0 1009.0 0.2
30/05:30pm 25.8 21.6 5.9 28 10.3 NNW 17 24 9 13 1008.4 1008.4 0.2
30/05:00pm 27.2 22.0 3.7 22 11.8 NW 20 28 11 15 1007.9 1007.9 0.2
30/04:30pm 27.9 22.4 4.2 22 12.0 NW 22 30 12 16 1007.4 1007.4 0.2
30/04:00pm 27.4 21.6 4.5 23 11.7 NNW 24 32 13 17 1006.9 1006.9 0.2
30/03:30pm 28.8 22.8 3.6 20 12.7 NW 24 43 13 23 1006.9 1006.9 0.2
30/03:00pm 28.3 23.6 3.2 20 12.6 WNW 17 26 9 14 1006.9 1006.9 0.2
30/02:30pm 28.7 23.0 2.8 19 12.9 WNW 22 33 12 18 1007.1 1007.1 0.2
30/02:00pm 27.6 22.2 4.6 23 11.7 W 22 33 12 18 1007.4 1007.4 0.2
30/01:30pm 27.8 23.4 4.8 23 11.8 WNW 17 28 9 15 1007.8 1007.8 0.2
30/01:00pm 27.1 22.8 7.0 28 10.7 W 19 28 10 15 1008.4 1008.4 0.2
30/12:30pm 27.1 22.3 7.5 29 10.5 WNW 22 32 12 17 1008.8 1008.8 0.2
30/12:00pm 26.7 22.0 6.2 27 10.7 WNW 20 32 11 17 1009.1 1009.1 0.2
30/11:30am 25.8 20.1 6.9 30 9.9 WNW 26 35 14 19 1009.5 1009.5 0.2
30/11:00am 26.5 22.2 8.0 31 9.9 WNW 20 37 11 20 1009.7 1009.7 0.2
30/10:30am 26.3 22.3 10.5 37 8.8 WNW 22 39 12 21 1009.8 1009.8 0.2
30/10:00am 24.8 21.6 11.4 43 7.6 W 19 24 10 13 1009.9 1009.9 0.2
30/09:30am 24.2 21.0 11.9 46 7.0 W 20 30 11 16 1009.9 1009.9 0.0
30/09:00am 23.5 19.9 9.9 42 7.4 WSW 19 28 10 15 1009.9 1009.9 8.0
30/08:30am 23.2 19.2 10.3 44 7.1 SW 22 37 12 20 1009.8 1009.8 8.0
30/08:00am 22.7 20.5 14.5 60 4.8 SW 19 28 10 15 1009.4 1009.4 8.0
30/07:30am 23.9 25.1 20.0 79 2.5 WNW 13 20 7 11 1008.8 1008.8 8.0
30/07:00am 22.8 25.0 20.3 86 1.6 NW 9 13 5 7 1008.5 1008.5 8.0
30/06:30am 21.7 23.7 20.0 90 1.1 NW 9 13 5 7 1008.2 1008.2 8.0
30/06:00am 20.5 23.3 18.8 90 1.1 WNW 2 6 1 3 1007.8 1007.8 8.0
30/05:30am 20.5 22.5 18.8 90 1.1 WNW 6 7 3 4 1007.4 1007.4 8.0
30/05:00am 20.7 22.6 19.0 90 1.1 NW 7 11 4 6 1007.4 1007.4 8.0
30/04:30am 19.9 20.6 18.0 89 1.2 NNW 11 13 6 7 1007.0 1007.0 8.0
30/04:00am 20.2 19.2 17.6 85 1.6 NW 19 28 10 15 1006.8 1006.8 8.0
30/03:44am 20.8 18.8 18.4 86 1.5 NNW 26 37 14 20 1006.7 1006.7 8.0
30/03:30am 21.9 22.5 20.2 90 1.1 NW 17 28 9 15 1006.8 1006.8 8.0
30/03:27am 22.2 23.7 20.5 90 1.1 NW 13 22 7 12 1006.8 1006.8 8.0
30/03:07am 22.4 22.7 20.5 89 1.2 NW 19 28 10 15 1006.7 1006.7 7.6
30/03:00am 22.4 23.1 20.5 89 1.2 NW 17 26 9 14 1006.6 1006.6 7.6
30/02:30am 22.5 23.3 20.6 89 1.2 NNW 17 24 9 13 1006.8 1006.8 7.6
30/02:00am 22.2 22.9 20.5 90 1.1 NNW 17 22 9 12 1007.1 1007.1 7.0
30/01:42am 22.2 23.3 20.5 90 1.1 NW 15 20 8 11 1007.7 1007.7 7.0
30/01:30am 22.4 23.1 20.5 89 1.2 NNW 17 20 9 11 1007.8 1007.8 7.0
30/01:08am 22.3 23.0 20.4 89 1.2 NNW 17 22 9 12 1007.8 1007.8 7.0
30/01:03am 22.3 22.6 20.4 89 1.2 NNW 19 28 10 15 1007.8 1007.8 7.0
30/01:00am 22.3 22.4 20.4 89 1.2 NNW 20 28 11 15 1007.9 1007.9 7.0
30/12:58am 22.3 22.4 20.4 89 1.2 NNW 20 28 11 15 1007.9 1007.9 7.0
30/12:51am 22.3 22.4 20.4 89 1.2 NW 20 28 11 15 1008.3 1008.3 7.0
30/12:45am 22.4 22.6 20.5 89 1.2 NW 20 26 11 14 1008.3 1008.3 7.0
30/12:30am 22.4 22.6 20.5 89 1.2 NNW 20 26 11 14 1008.5 1008.5 7.0
30/12:09am 22.4 22.1 20.3 88 1.4 NNW 22 33 12 18 1008.6 1008.6 7.0
30/12:00am 22.4 22.1 20.3 88 1.4 NNW 22 32 12 17 1008.8 1008.8 7.0
 
Date/Time
EST
Temp
°C
App
Temp
°C
Dew
Point
°C
Rel
Hum
%
Delta-T
°C
Wind Press
QNH
hPa
Press
MSL
hPa
Rain since
9am
mm
Dir  Spd
km/h
Gust
km/h
Spd
kts
Gust
kts
29/11:56pm 22.4 21.7 20.3 88 1.4 NNW 24 32 13 17 1008.8 1008.8 7.0
29/11:42pm 22.5 22.5 20.2 87 1.5 NNW 20 33 11 18 1008.7 1008.7 7.0
29/11:30pm 22.5 22.8 20.4 88 1.4 NNW 19 28 10 15 1008.9 1008.9 7.0
29/11:19pm 22.5 22.7 20.2 87 1.5 NNW 19 26 10 14 1009.0 1009.0 7.0
29/11:00pm 22.6 22.7 20.3 87 1.5 NNW 20 32 11 17 1009.2 1009.2 7.0
29/10:30pm 22.6 22.7 20.3 87 1.5 NNW 20 30 11 16 1008.9 1008.9 7.0
29/10:00pm 22.8 23.4 20.3 86 1.6 NNW 17 24 9 13 1009.0 1009.0 6.8
29/09:30pm 22.7 23.7 20.2 86 1.6 N 15 20 8 11 1009.1 1009.1 6.8
29/09:00pm 22.2 24.0 20.3 89 1.2 N 11 15 6 8 1009.4 1009.4 6.8
29/08:44pm 22.1 23.8 20.2 89 1.2 N 11 17 6 9 1009.5 1009.5 6.8
29/08:30pm 21.9 23.7 20.4 91 1.0 NNE 11 15 6 8 1009.4 1009.4 6.8
29/08:00pm 21.6 22.8 19.9 90 1.1 NNE 13 17 7 9 1009.2 1009.2 6.8
29/07:39pm 21.5 21.7 19.4 88 1.3 N 17 24 9 13 1009.2 1009.2 6.8
29/07:30pm 22.0 22.8 19.9 88 1.3 N 15 20 8 11 1008.9 1008.9 6.8
29/07:00pm 22.1 24.2 20.2 89 1.2 N 9 13 5 7 1008.8 1008.8 6.8
29/06:45pm 22.1 24.2 20.2 89 1.2 NNE 9 15 5 8 1008.5 1008.5 6.6
29/06:30pm 22.0 23.7 20.1 89 1.2 NNE 11 19 6 10 1008.3 1008.3 6.2
29/06:28pm 22.0 23.7 20.1 89 1.2 NNE 11 19 6 10 1008.2 1008.2 6.2
29/06:00pm 21.9 23.8 19.8 88 1.3 N 9 13 5 7 1008.0 1008.0 5.0
29/05:38pm 21.8 23.4 19.9 89 1.2 N 11 17 6 9 1007.8 1007.8 4.6
29/05:30pm 21.9 23.1 19.8 88 1.3 NNE 13 22 7 12 1007.7 1007.7 4.4
29/05:02pm 22.0 22.0 19.0 83 1.9 NNE 17 20 9 11 1007.5 1007.5 1.8
29/05:00pm 22.2 22.7 19.2 83 1.9 N 15 20 8 11 1007.6 1007.6 1.0
29/04:30pm 23.1 23.7 18.6 76 2.8 N 13 20 7 11 1007.9 1007.9 0.0
29/04:00pm 23.4 23.4 18.1 72 3.3 N 15 20 8 11 1007.9 1007.9 0.0
29/03:30pm 23.6 23.4 17.6 69 3.7 N 15 20 8 11 1007.6 1007.6 0.0
29/03:00pm 23.6 23.1 17.8 70 3.6 N 17 24 9 13 1007.5 1007.5 0.0
29/02:30pm 24.1 22.9 17.1 65 4.3 N 19 26 10 14 1007.6 1007.6 0.0
29/02:00pm 24.4 23.8 16.6 61 4.8 NNW 15 22 8 12 1007.8 1007.8 0.0
29/01:30pm 24.9 23.9 16.6 60 5.1 NNW 17 22 9 12 1008.5 1008.5 0.0
29/01:00pm 24.6 23.1 16.3 60 5.1 NNW 19 26 10 14 1009.3 1009.3 0.0
29/12:30pm 24.8 23.1 16.2 58 5.3 NNW 20 28 11 15 1009.4 1009.4 0.0
29/12:00pm 24.5 22.7 16.0 59 5.2 NNW 20 26 11 14 1009.9 1009.9 0.0
29/11:30am 25.1 21.9 15.4 55 5.9 NNW 26 35 14 19 1010.2 1010.2 0.0
29/11:00am 25.1 22.3 15.4 55 5.9 NNW 24 32 13 17 1010.3 1010.3 0.0
29/10:30am 25.0 21.6 14.8 53 6.1 NNW 26 35 14 19 1010.8 1010.8 0.0
29/10:00am 25.3 22.0 14.1 50 6.6 NNW 24 35 13 19 1010.8 1010.8 0.0
29/09:30am 25.2 22.0 13.1 47 7.0 NNW 22 32 12 17 1011.2 1011.2 0.0
29/09:00am 24.8 22.2 13.7 50 6.5 NNW 20 30 11 16 1010.9 1010.9 0.0
29/08:30am 23.2 22.6 14.5 58 5.1 NW 11 19 6 10 1011.3 1011.3 0.0
29/08:00am 22.2 22.2 14.1 60 4.7 NW 7 11 4 6 1011.5 1011.5 0.0
29/07:30am 21.3 21.7 13.7 62 4.4 SW 4 7 2 4 1011.2 1011.2 0.0
29/07:00am 19.8 19.4 13.0 65 3.9 SW 7 9 4 5 1011.0 1011.0 0.0
29/06:30am 18.8 18.8 12.3 66 3.6 SSE 4 9 2 5 1010.4 1010.4 0.0
29/06:00am 18.1 17.9 11.7 66 3.5 SW 4 9 2 5 1010.7 1010.7 0.0
29/05:30am 17.7 17.8 11.5 67 3.4 SW 2 7 1 4 1011.0 1011.0 0.0
29/05:00am 17.5 16.2 11.3 67 3.4 SSW 9 11 5 6 1010.8 1010.8 0.0
29/04:30am 18.3 19.0 12.3 68 3.3 CALM 0 6 0 3 1010.5 1010.5 0.0
29/04:00am 18.3 18.7 11.4 64 3.8 CALM 0 6 0 3 1011.0 1011.0 0.0
29/03:30am 17.8 16.3 10.4 62 4.0 SSW 9 9 5 5 1011.1 1011.1 0.0
29/03:00am 18.6 17.7 11.4 63 3.9 WSW 7 9 4 5 1011.0 1011.0 0.0
29/02:30am 18.5 18.1 11.1 62 4.0 S 4 6 2 3 1010.8 1010.8 0.0
29/02:00am 18.3 18.5 10.7 61 4.1 CALM 0 0 0 0 1011.4 1011.4 0.0
29/01:30am 18.5 17.6 10.8 61 4.2 SE 6 7 3 4 1011.7 1011.7 0.0
29/01:00am 18.4 18.3 10.8 61 4.1 SSW 2 6 1 3 1012.2 1012.2 0.0
29/12:30am 18.4 17.5 10.8 61 4.1 SSE 6 7 3 4 1012.4 1012.4 0.0
29/12:00am 18.2 16.6 10.3 60 4.2 SW 9 11 5 6 1013.2 1013.2 0.0
 
Date/Time
EST
Temp
°C
App
Temp
°C
Dew
Point
°C
Rel
Hum
%
Delta-T
°C
Wind Press
QNH
hPa
Press
MSL
hPa
Rain since
9am
mm
Dir  Spd
km/h
Gust
km/h
Spd
kts
Gust
kts
28/11:30pm 18.0 18.4 11.1 64 3.7 CALM 0 0 0 0 1013.1 1013.1 0.0
28/11:00pm 18.5 18.8 10.8 61 4.2 CALM 0 6 0 3 1013.3 1013.3 0.0
28/10:30pm 19.1 18.3 10.9 59 4.5 NW 6 7 3 4 1013.2 1013.2 0.0
28/10:00pm 19.6 18.6 10.9 57 4.7 W 7 7 4 4 1013.2 1013.2 0.0
28/09:30pm 20.7 19.5 11.6 56 5.0 WNW 9 13 5 7 1013.6 1013.6 0.0
28/09:00pm 21.7 19.7 11.4 52 5.7 NNW 13 15 7 8 1013.0 1013.0 0.0
28/08:30pm 21.8 20.1 11.2 51 5.9 N 11 17 6 9 1012.6 1012.6 0.0
28/08:00pm 22.2 20.1 11.3 50 6.1 N 13 19 7 10 1012.8 1012.8 0.0
28/07:30pm 22.3 20.2 11.1 49 6.2 N 13 19 7 10 1012.8 1012.8 0.0
28/07:00pm 22.6 20.2 10.1 45 6.8 N 13 15 7 8 1012.4 1012.4 0.0
28/06:30pm 23.0 20.3 9.0 41 7.5 N 13 19 7 10 1012.5 1012.5 0.0
28/06:00pm 23.5 19.6 7.2 35 8.5 N 17 22 9 12 1012.0 1012.0 0.0
28/05:30pm 24.2 19.6 6.5 32 9.1 N 20 28 11 15 1011.7 1011.7 0.0
28/05:00pm 24.9 19.8 6.1 30 9.7 NNE 22 30 12 16 1011.7 1011.7 0.0

Other Formats:

Comma delimited format used in spreadsheet applications
http://www.bom.gov.au/fwo/IDQ60801/IDQ60801.94381.axf

JavaScript Object Notation format (JSON) in row-major order
http://www.bom.gov.au/fwo/IDQ60801/IDQ60801.94381.json